sensor_id;sensor_type;location;lat;lon;timestamp;pressure;altitude;pressure_sealevel;temperature;humidity
21100;BME280;10708;50.824;4.408;2023-06-04T00:00:47;101059.81;;;14.61;88.12
21100;BME280;10708;50.824;4.408;2023-06-04T00:05:50;101052.28;;;14.52;87.75
21100;BME280;10708;50.824;4.408;2023-06-04T00:10:52;101049.06;;;14.45;87.41
21100;BME280;10708;50.824;4.408;2023-06-04T00:15:54;101050.09;;;14.41;87.37
21100;BME280;10708;50.824;4.408;2023-06-04T00:20:58;101043.25;;;14.35;87.58
21100;BME280;10708;50.824;4.408;2023-06-04T00:26:00;101042.53;;;14.32;86.99
21100;BME280;10708;50.824;4.408;2023-06-04T00:31:04;101041.78;;;14.28;87.71
21100;BME280;10708;50.824;4.408;2023-06-04T00:36:08;101035.03;;;14.21;88.38
21100;BME280;10708;50.824;4.408;2023-06-04T00:41:10;101036.19;;;14.16;87.57
21100;BME280;10708;50.824;4.408;2023-06-04T00:46:12;101036.38;;;14.11;87.90
21100;BME280;10708;50.824;4.408;2023-06-04T00:51:20;101032.84;;;14.11;88.74
21100;BME280;10708;50.824;4.408;2023-06-04T00:56:23;101032.22;;;14.06;88.86
21100;BME280;10708;50.824;4.408;2023-06-04T01:01:31;101033.25;;;14.01;90.30
21100;BME280;10708;50.824;4.408;2023-06-04T01:06:39;101041.41;;;13.97;92.09
21100;BME280;10708;50.824;4.408;2023-06-04T01:11:41;101045.22;;;13.90;90.87
21100;BME280;10708;50.824;4.408;2023-06-04T01:16:47;101046.34;;;13.84;90.90
21100;BME280;10708;50.824;4.408;2023-06-04T01:21:53;101041.38;;;13.77;92.03
21100;BME280;10708;50.824;4.408;2023-06-04T01:26:57;101040.69;;;13.72;92.03
21100;BME280;10708;50.824;4.408;2023-06-04T01:32:00;101032.19;;;13.63;92.62
21100;BME280;10708;50.824;4.408;2023-06-04T01:37:03;101035.13;;;13.57;93.31
21100;BME280;10708;50.824;4.408;2023-06-04T01:42:06;101041.44;;;13.53;92.45
21100;BME280;10708;50.824;4.408;2023-06-04T01:47:08;101041.81;;;13.44;93.11
21100;BME280;10708;50.824;4.408;2023-06-04T01:52:12;101035.16;;;13.34;93.37
21100;BME280;10708;50.824;4.408;2023-06-04T01:57:14;101036.44;;;13.24;94.03
21100;BME280;10708;50.824;4.408;2023-06-04T02:02:16;101039.19;;;13.21;96.03
21100;BME280;10708;50.824;4.408;2023-06-04T02:07:20;101042.09;;;13.15;96.55
21100;BME280;10708;50.824;4.408;2023-06-04T02:12:22;101044.00;;;13.10;98.81
21100;BME280;10708;50.824;4.408;2023-06-04T02:17:24;101032.72;;;13.06;98.08
21100;BME280;10708;50.824;4.408;2023-06-04T02:22:27;101032.06;;;13.00;99.42
21100;BME280;10708;50.824;4.408;2023-06-04T02:27:29;101047.31;;;12.93;99.11
21100;BME280;10708;50.824;4.408;2023-06-04T02:32:31;101050.19;;;12.87;100.00
21100;BME280;10708;50.824;4.408;2023-06-04T02:37:35;101047.81;;;12.79;100.00
21100;BME280;10708;50.824;4.408;2023-06-04T02:42:37;101051.72;;;12.69;100.00
21100;BME280;10708;50.824;4.408;2023-06-04T02:47:39;101056.41;;;12.61;100.00
21100;BME280;10708;50.824;4.408;2023-06-04T02:52:43;101059.28;;;12.55;100.00
21100;BME280;10708;50.824;4.408;2023-06-04T02:57:45;101052.63;;;12.45;100.00
21100;BME280;10708;50.824;4.408;2023-06-04T03:02:48;101050.25;;;12.37;100.00
21100;BME280;10708;50.824;4.408;2023-06-04T03:07:51;101039.84;;;12.33;100.00
21100;BME280;10708;50.824;4.408;2023-06-04T03:12:53;101041.88;;;12.25;100.00
21100;BME280;10708;50.824;4.408;2023-06-04T03:17:57;101049.97;;;12.20;100.00
21100;BME280;10708;50.824;4.408;2023-06-04T03:23:01;101048.41;;;12.14;100.00
21100;BME280;10708;50.824;4.408;2023-06-04T03:28:03;101051.19;;;12.10;100.00
21100;BME280;10708;50.824;4.408;2023-06-04T03:33:05;101045.16;;;12.06;100.00
21100;BME280;10708;50.824;4.408;2023-06-04T03:38:09;101047.09;;;12.01;100.00
21100;BME280;10708;50.824;4.408;2023-06-04T03:43:11;101049.00;;;11.98;100.00
21100;BME280;10708;50.824;4.408;2023-06-04T03:48:13;101050.00;;;11.94;100.00
21100;BME280;10708;50.824;4.408;2023-06-04T03:53:16;101043.00;;;11.93;100.00
21100;BME280;10708;50.824;4.408;2023-06-04T03:58:19;101041.25;;;11.92;100.00
21100;BME280;10708;50.824;4.408;2023-06-04T04:03:21;101050.09;;;11.91;100.00
21100;BME280;10708;50.824;4.408;2023-06-04T04:08:25;101039.66;;;11.88;100.00
21100;BME280;10708;50.824;4.408;2023-06-04T04:13:31;101050.25;;;11.86;100.00
21100;BME280;10708;50.824;4.408;2023-06-04T04:18:34;101054.66;;;11.86;100.00
21100;BME280;10708;50.824;4.408;2023-06-04T04:23:39;101059.13;;;11.83;100.00
21100;BME280;10708;50.824;4.408;2023-06-04T04:28:42;101060.03;;;11.82;100.00
21100;BME280;10708;50.824;4.408;2023-06-04T04:33:44;101056.50;;;11.83;100.00
21100;BME280;10708;50.824;4.408;2023-06-04T04:38:48;101061.81;;;11.82;100.00
21100;BME280;10708;50.824;4.408;2023-06-04T04:43:54;101064.41;;;11.83;100.00
21100;BME280;10708;50.824;4.408;2023-06-04T04:49:04;101062.53;;;11.87;100.00
21100;BME280;10708;50.824;4.408;2023-06-04T04:54:08;101062.47;;;11.89;100.00
21100;BME280;10708;50.824;4.408;2023-06-04T04:59:10;101078.16;;;11.93;100.00
21100;BME280;10708;50.824;4.408;2023-06-04T05:04:12;101079.72;;;11.99;100.00
21100;BME280;10708;50.824;4.408;2023-06-04T05:09:15;101077.75;;;12.05;100.00
21100;BME280;10708;50.824;4.408;2023-06-04T05:14:17;101085.50;;;12.10;100.00
21100;BME280;10708;50.824;4.408;2023-06-04T05:19:19;101088.00;;;12.14;100.00
21100;BME280;10708;50.824;4.408;2023-06-04T05:24:23;101085.16;;;12.20;100.00
21100;BME280;10708;50.824;4.408;2023-06-04T05:29:25;101091.03;;;12.29;100.00
21100;BME280;10708;50.824;4.408;2023-06-04T05:34:27;101082.97;;;12.33;100.00
21100;BME280;10708;50.824;4.408;2023-06-04T05:39:31;101069.47;;;12.41;100.00
21100;BME280;10708;50.824;4.408;2023-06-04T05:44:33;101074.56;;;12.47;100.00
21100;BME280;10708;50.824;4.408;2023-06-04T05:49:35;101074.22;;;12.56;100.00
21100;BME280;10708;50.824;4.408;2023-06-04T05:54:39;101082.69;;;12.66;100.00
21100;BME280;10708;50.824;4.408;2023-06-04T05:59:41;101082.22;;;12.78;100.00
21100;BME280;10708;50.824;4.408;2023-06-04T06:04:43;101079.31;;;12.85;100.00
21100;BME280;10708;50.824;4.408;2023-06-04T06:09:46;101083.34;;;12.96;100.00
21100;BME280;10708;50.824;4.408;2023-06-04T06:14:48;101092.47;;;13.10;100.00
21100;BME280;10708;50.824;4.408;2023-06-04T06:19:50;101083.31;;;13.20;100.00
21100;BME280;10708;50.824;4.408;2023-06-04T06:24:54;101097.47;;;13.41;100.00
21100;BME280;10708;50.824;4.408;2023-06-04T06:29:56;101102.38;;;13.74;100.00
21100;BME280;10708;50.824;4.408;2023-06-04T06:34:58;101101.13;;;14.46;100.00
21100;BME280;10708;50.824;4.408;2023-06-04T06:40:01;101097.44;;;15.83;100.00
21100;BME280;10708;50.824;4.408;2023-06-04T06:45:05;101098.13;;;17.39;100.00
21100;BME280;10708;50.824;4.408;2023-06-04T06:50:08;101096.31;;;18.32;100.00
21100;BME280;10708;50.824;4.408;2023-06-04T06:55:12;101103.03;;;18.83;100.00
21100;BME280;10708;50.824;4.408;2023-06-04T07:00:15;101099.03;;;19.74;100.00
21100;BME280;10708;50.824;4.408;2023-06-04T07:05:17;101102.75;;;20.25;100.00
21100;BME280;10708;50.824;4.408;2023-06-04T07:10:21;101098.00;;;20.43;100.00
21100;BME280;10708;50.824;4.408;2023-06-04T07:15:23;101105.72;;;20.85;100.00
21100;BME280;10708;50.824;4.408;2023-06-04T07:20:25;101098.09;;;21.30;100.00
21100;BME280;10708;50.824;4.408;2023-06-04T07:25:28;101114.06;;;21.68;100.00
21100;BME280;10708;50.824;4.408;2023-06-04T07:30:30;101112.78;;;22.21;100.00
21100;BME280;10708;50.824;4.408;2023-06-04T07:35:33;101107.88;;;22.15;100.00
21100;BME280;10708;50.824;4.408;2023-06-04T07:40:36;101104.41;;;22.26;100.00
21100;BME280;10708;50.824;4.408;2023-06-04T07:45:38;101109.88;;;22.00;93.80
21100;BME280;10708;50.824;4.408;2023-06-04T07:50:40;101108.66;;;22.28;97.06
21100;BME280;10708;50.824;4.408;2023-06-04T07:55:44;101102.75;;;23.15;96.92
21100;BME280;10708;50.824;4.408;2023-06-04T08:00:46;101106.84;;;23.75;92.99
21100;BME280;10708;50.824;4.408;2023-06-04T08:05:48;101100.66;;;23.08;90.75
21100;BME280;10708;50.824;4.408;2023-06-04T08:10:51;101111.50;;;23.17;95.48
21100;BME280;10708;50.824;4.408;2023-06-04T08:15:53;101110.03;;;23.69;95.06
21100;BME280;10708;50.824;4.408;2023-06-04T08:20:55;101104.81;;;23.45;94.24
21100;BME280;10708;50.824;4.408;2023-06-04T08:31:01;101111.16;;;23.44;93.64
21100;BME280;10708;50.824;4.408;2023-06-04T08:36:03;101104.56;;;23.60;87.17
21100;BME280;10708;50.824;4.408;2023-06-04T08:41:12;101114.34;;;23.49;88.13
21100;BME280;10708;50.824;4.408;2023-06-04T08:46:17;101112.63;;;23.04;86.96
21100;BME280;10708;50.824;4.408;2023-06-04T08:51:20;101107.13;;;23.28;85.57
21100;BME280;10708;50.824;4.408;2023-06-04T08:56:25;101106.66;;;23.88;84.79
21100;BME280;10708;50.824;4.408;2023-06-04T09:01:30;101107.31;;;24.23;84.79
21100;BME280;10708;50.824;4.408;2023-06-04T09:06:33;101108.28;;;24.22;81.36
21100;BME280;10708;50.824;4.408;2023-06-04T09:11:45;101109.03;;;24.24;81.47
21100;BME280;10708;50.824;4.408;2023-06-04T09:16:49;101119.94;;;24.44;82.15
21100;BME280;10708;50.824;4.408;2023-06-04T09:21:54;101110.69;;;23.50;77.43
21100;BME280;10708;50.824;4.408;2023-06-04T09:26:58;101111.88;;;23.58;80.30
21100;BME280;10708;50.824;4.408;2023-06-04T09:32:12;101115.28;;;23.48;80.04
21100;BME280;10708;50.824;4.408;2023-06-04T09:37:14;101115.19;;;23.28;80.06
21100;BME280;10708;50.824;4.408;2023-06-04T09:42:19;101107.34;;;23.47;80.59
21100;BME280;10708;50.824;4.408;2023-06-04T09:47:21;101109.31;;;23.45;79.69
21100;BME280;10708;50.824;4.408;2023-06-04T09:52:32;101106.38;;;23.59;78.88
21100;BME280;10708;50.824;4.408;2023-06-04T09:57:37;101114.19;;;23.29;76.57
21100;BME280;10708;50.824;4.408;2023-06-04T10:02:42;101120.13;;;23.88;78.42
21100;BME280;10708;50.824;4.408;2023-06-04T10:07:45;101103.50;;;24.26;78.33
21100;BME280;10708;50.824;4.408;2023-06-04T10:12:51;101099.50;;;24.09;76.51
21100;BME280;10708;50.824;4.408;2023-06-04T10:17:55;101102.44;;;24.06;75.16
21100;BME280;10708;50.824;4.408;2023-06-04T10:22:58;101095.97;;;24.09;74.00
21100;BME280;10708;50.824;4.408;2023-06-04T10:28:01;101101.66;;;24.47;73.90
21100;BME280;10708;50.824;4.408;2023-06-04T10:33:04;101091.88;;;24.67;70.90
21100;BME280;10708;50.824;4.408;2023-06-04T10:38:08;101082.53;;;25.22;75.53
21100;BME280;10708;50.824;4.408;2023-06-04T10:43:12;101095.13;;;25.52;71.42
21100;BME280;10708;50.824;4.408;2023-06-04T10:48:16;101090.53;;;26.02;74.62
21100;BME280;10708;50.824;4.408;2023-06-04T10:53:19;101092.97;;;26.15;75.32
21100;BME280;10708;50.824;4.408;2023-06-04T10:58:31;101092.22;;;26.61;72.58
21100;BME280;10708;50.824;4.408;2023-06-04T11:03:37;101093.09;;;26.23;74.31
21100;BME280;10708;50.824;4.408;2023-06-04T11:08:39;101095.78;;;25.85;68.21
21100;BME280;10708;50.824;4.408;2023-06-04T11:13:43;101094.56;;;25.18;71.01
21100;BME280;10708;50.824;4.408;2023-06-04T11:18:54;101081.53;;;24.62;70.03
21100;BME280;10708;50.824;4.408;2023-06-04T11:23:58;101078.69;;;24.22;72.26
21100;BME280;10708;50.824;4.408;2023-06-04T11:29:06;101075.94;;;23.47;70.34
21100;BME280;10708;50.824;4.408;2023-06-04T11:34:08;101074.63;;;23.19;71.41
21100;BME280;10708;50.824;4.408;2023-06-04T11:39:10;101075.19;;;22.67;69.24
21100;BME280;10708;50.824;4.408;2023-06-04T11:44:18;101059.69;;;22.60;69.93
21100;BME280;10708;50.824;4.408;2023-06-04T11:49:20;101060.31;;;22.52;70.03
21100;BME280;10708;50.824;4.408;2023-06-04T11:54:23;101069.22;;;22.53;67.57
21100;BME280;10708;50.824;4.408;2023-06-04T11:59:26;101062.38;;;22.60;68.98
21100;BME280;10708;50.824;4.408;2023-06-04T12:04:30;101074.09;;;22.59;70.29
21100;BME280;10708;50.824;4.408;2023-06-04T12:09:33;101065.31;;;22.68;71.10
21100;BME280;10708;50.824;4.408;2023-06-04T12:14:40;101056.13;;;22.48;70.98
21100;BME280;10708;50.824;4.408;2023-06-04T12:19:46;101061.72;;;22.34;69.00
21100;BME280;10708;50.824;4.408;2023-06-04T12:24:50;101053.91;;;22.31;68.56
21100;BME280;10708;50.824;4.408;2023-06-04T12:30:00;101050.91;;;22.58;71.07
21100;BME280;10708;50.824;4.408;2023-06-04T12:35:03;101044.69;;;22.68;71.63
21100;BME280;10708;50.824;4.408;2023-06-04T12:40:06;101041.94;;;22.81;71.11
21100;BME280;10708;50.824;4.408;2023-06-04T12:45:12;101031.81;;;22.85;69.69
21100;BME280;10708;50.824;4.408;2023-06-04T12:50:15;101031.66;;;22.86;70.63
21100;BME280;10708;50.824;4.408;2023-06-04T12:55:19;101044.13;;;22.98;71.08
21100;BME280;10708;50.824;4.408;2023-06-04T13:00:22;101044.97;;;22.88;70.85
21100;BME280;10708;50.824;4.408;2023-06-04T13:05:24;101040.34;;;22.78;70.29
21100;BME280;10708;50.824;4.408;2023-06-04T13:10:26;101038.28;;;22.82;71.42
21100;BME280;10708;50.824;4.408;2023-06-04T13:15:30;101046.56;;;23.12;71.00
21100;BME280;10708;50.824;4.408;2023-06-04T13:20:32;101039.47;;;23.11;69.21
21100;BME280;10708;50.824;4.408;2023-06-04T13:25:34;101037.88;;;23.09;71.04
21100;BME280;10708;50.824;4.408;2023-06-04T13:30:38;101043.66;;;23.15;69.34
21100;BME280;10708;50.824;4.408;2023-06-04T13:35:41;101029.09;;;23.18;69.11
21100;BME280;10708;50.824;4.408;2023-06-04T13:40:44;101030.91;;;23.17;68.77
21100;BME280;10708;50.824;4.408;2023-06-04T13:45:48;101041.91;;;23.26;69.71
21100;BME280;10708;50.824;4.408;2023-06-04T13:50:50;101024.56;;;23.30;68.47
21100;BME280;10708;50.824;4.408;2023-06-04T13:55:52;101018.94;;;23.33;69.15
21100;BME280;10708;50.824;4.408;2023-06-04T14:00:59;101021.75;;;23.31;68.91
21100;BME280;10708;50.824;4.408;2023-06-04T14:06:02;101010.72;;;23.45;69.18
21100;BME280;10708;50.824;4.408;2023-06-04T14:11:04;101002.06;;;23.53;69.18
21100;BME280;10708;50.824;4.408;2023-06-04T14:16:07;101011.31;;;23.60;69.73
21100;BME280;10708;50.824;4.408;2023-06-04T14:21:09;101004.59;;;23.66;69.56
21100;BME280;10708;50.824;4.408;2023-06-04T14:26:11;100996.56;;;23.54;66.98
21100;BME280;10708;50.824;4.408;2023-06-04T14:31:15;101001.75;;;23.67;67.58
21100;BME280;10708;50.824;4.408;2023-06-04T14:36:17;101006.00;;;23.70;68.14
21100;BME280;10708;50.824;4.408;2023-06-04T14:41:19;100990.69;;;23.49;65.42
21100;BME280;10708;50.824;4.408;2023-06-04T14:46:23;100993.81;;;23.66;65.99
21100;BME280;10708;50.824;4.408;2023-06-04T14:51:25;101000.63;;;23.70;65.70
21100;BME280;10708;50.824;4.408;2023-06-04T14:56:27;101000.63;;;23.70;65.28
21100;BME280;10708;50.824;4.408;2023-06-04T15:01:32;100987.72;;;23.64;66.10
21100;BME280;10708;50.824;4.408;2023-06-04T15:06:34;100988.16;;;23.69;64.35
21100;BME280;10708;50.824;4.408;2023-06-04T15:11:36;100988.56;;;23.64;65.11
21100;BME280;10708;50.824;4.408;2023-06-04T15:16:39;100982.72;;;23.59;64.25
21100;BME280;10708;50.824;4.408;2023-06-04T15:21:48;100985.19;;;23.83;66.02
21100;BME280;10708;50.824;4.408;2023-06-04T15:26:51;100996.59;;;23.75;63.46
21100;BME280;10708;50.824;4.408;2023-06-04T15:31:55;100985.44;;;23.80;65.96
21100;BME280;10708;50.824;4.408;2023-06-04T15:36:58;100981.16;;;23.77;62.65
21100;BME280;10708;50.824;4.408;2023-06-04T15:42:00;100984.06;;;23.85;64.71
21100;BME280;10708;50.824;4.408;2023-06-04T15:47:05;100983.84;;;23.77;62.33
21100;BME280;10708;50.824;4.408;2023-06-04T15:52:07;100984.06;;;23.85;63.66
21100;BME280;10708;50.824;4.408;2023-06-04T15:57:09;100971.56;;;23.96;65.50
21100;BME280;10708;50.824;4.408;2023-06-04T16:02:13;100964.19;;;23.98;63.17
21100;BME280;10708;50.824;4.408;2023-06-04T16:07:16;100968.19;;;23.82;62.74
21100;BME280;10708;50.824;4.408;2023-06-04T16:12:18;100944.56;;;23.65;60.63
21100;BME280;10708;50.824;4.408;2023-06-04T16:17:21;100956.38;;;23.74;61.98
21100;BME280;10708;50.824;4.408;2023-06-04T16:22:23;100951.66;;;23.87;60.72
21100;BME280;10708;50.824;4.408;2023-06-04T16:27:25;100966.44;;;23.92;63.51
21100;BME280;10708;50.824;4.408;2023-06-04T16:32:29;100949.38;;;23.82;62.47
21100;BME280;10708;50.824;4.408;2023-06-04T16:37:31;100950.16;;;23.73;62.30
21100;BME280;10708;50.824;4.408;2023-06-04T16:42:33;100948.63;;;23.80;62.25
21100;BME280;10708;50.824;4.408;2023-06-04T16:47:37;100955.53;;;23.73;64.00
21100;BME280;10708;50.824;4.408;2023-06-04T16:52:41;100944.41;;;23.67;64.63
21100;BME280;10708;50.824;4.408;2023-06-04T16:57:43;100937.75;;;23.61;64.28
21100;BME280;10708;50.824;4.408;2023-06-04T17:02:47;100938.00;;;23.47;64.43
21100;BME280;10708;50.824;4.408;2023-06-04T17:07:49;100927.50;;;23.55;65.72
21100;BME280;10708;50.824;4.408;2023-06-04T17:12:51;100937.13;;;23.58;66.42
21100;BME280;10708;50.824;4.408;2023-06-04T17:17:55;100943.13;;;23.61;66.97
21100;BME280;10708;50.824;4.408;2023-06-04T17:23:00;100928.63;;;23.52;66.99
21100;BME280;10708;50.824;4.408;2023-06-04T17:28:02;100937.78;;;23.50;67.65
21100;BME280;10708;50.824;4.408;2023-06-04T17:33:06;100929.91;;;23.58;68.32
21100;BME280;10708;50.824;4.408;2023-06-04T17:38:08;100942.34;;;23.70;68.75
21100;BME280;10708;50.824;4.408;2023-06-04T17:43:10;100927.03;;;23.50;68.63
21100;BME280;10708;50.824;4.408;2023-06-04T17:48:14;100932.28;;;23.40;69.21
21100;BME280;10708;50.824;4.408;2023-06-04T17:53:17;100934.38;;;23.37;69.71
21100;BME280;10708;50.824;4.408;2023-06-04T17:58:20;100947.22;;;23.33;69.33
21100;BME280;10708;50.824;4.408;2023-06-04T18:03:24;100941.56;;;23.15;69.87
21100;BME280;10708;50.824;4.408;2023-06-04T18:08:26;100955.00;;;23.04;69.29
21100;BME280;10708;50.824;4.408;2023-06-04T18:13:29;100943.88;;;22.98;70.12
21100;BME280;10708;50.824;4.408;2023-06-04T18:18:32;100949.53;;;22.95;70.78
21100;BME280;10708;50.824;4.408;2023-06-04T18:23:34;100941.09;;;22.88;71.04
21100;BME280;10708;50.824;4.408;2023-06-04T18:28:37;100942.69;;;22.79;71.71
21100;BME280;10708;50.824;4.408;2023-06-04T18:33:50;100944.63;;;22.66;71.64
21100;BME280;10708;50.824;4.408;2023-06-04T18:38:53;100944.88;;;22.63;71.65
21100;BME280;10708;50.824;4.408;2023-06-04T18:43:55;100953.56;;;22.56;72.03
21100;BME280;10708;50.824;4.408;2023-06-04T18:48:58;100952.31;;;22.49;72.42
21100;BME280;10708;50.824;4.408;2023-06-04T18:54:02;100949.91;;;22.45;72.86
21100;BME280;10708;50.824;4.408;2023-06-04T18:59:04;100954.41;;;22.34;73.67
21100;BME280;10708;50.824;4.408;2023-06-04T19:04:08;100964.75;;;22.27;73.87
21100;BME280;10708;50.824;4.408;2023-06-04T19:09:13;100958.03;;;22.22;74.14
21100;BME280;10708;50.824;4.408;2023-06-04T19:14:15;100968.00;;;22.08;74.56
21100;BME280;10708;50.824;4.408;2023-06-04T19:19:19;100968.31;;;21.93;75.03
21100;BME280;10708;50.824;4.408;2023-06-04T19:24:21;100978.63;;;21.75;79.54
21100;BME280;10708;50.824;4.408;2023-06-04T19:29:23;100983.50;;;21.57;85.04
21100;BME280;10708;50.824;4.408;2023-06-04T19:34:27;100988.78;;;21.35;90.71
21100;BME280;10708;50.824;4.408;2023-06-04T19:39:29;100993.13;;;21.12;94.13
21100;BME280;10708;50.824;4.408;2023-06-04T19:44:31;101007.94;;;20.92;94.66
21100;BME280;10708;50.824;4.408;2023-06-04T19:49:34;101007.53;;;20.73;93.88
21100;BME280;10708;50.824;4.408;2023-06-04T19:54:37;101013.44;;;20.53;97.61
21100;BME280;10708;50.824;4.408;2023-06-04T19:59:39;101027.16;;;20.36;100.00
21100;BME280;10708;50.824;4.408;2023-06-04T20:04:43;101022.72;;;20.22;100.00
21100;BME280;10708;50.824;4.408;2023-06-04T20:09:45;101031.66;;;20.08;100.00
21100;BME280;10708;50.824;4.408;2023-06-04T20:14:48;101040.63;;;19.95;100.00
21100;BME280;10708;50.824;4.408;2023-06-04T20:19:51;101046.97;;;19.79;100.00
21100;BME280;10708;50.824;4.408;2023-06-04T20:24:54;101044.38;;;19.65;100.00
21100;BME280;10708;50.824;4.408;2023-06-04T20:29:56;101057.59;;;19.54;100.00
21100;BME280;10708;50.824;4.408;2023-06-04T20:34:59;101053.09;;;19.40;100.00
21100;BME280;10708;50.824;4.408;2023-06-04T20:40:02;101058.38;;;19.28;100.00
21100;BME280;10708;50.824;4.408;2023-06-04T20:45:06;101050.31;;;19.15;100.00
21100;BME280;10708;50.824;4.408;2023-06-04T20:50:10;101058.13;;;19.04;100.00
21100;BME280;10708;50.824;4.408;2023-06-04T20:55:12;101064.22;;;18.92;100.00
21100;BME280;10708;50.824;4.408;2023-06-04T21:00:16;101056.97;;;18.79;100.00
21100;BME280;10708;50.824;4.408;2023-06-04T21:05:20;101072.69;;;18.70;100.00
21100;BME280;10708;50.824;4.408;2023-06-04T21:10:22;101078.78;;;18.58;100.00
21100;BME280;10708;50.824;4.408;2023-06-04T21:15:24;101095.31;;;18.49;100.00
21100;BME280;10708;50.824;4.408;2023-06-04T21:20:28;101088.91;;;18.37;100.00
21100;BME280;10708;50.824;4.408;2023-06-04T21:25:30;101103.72;;;18.27;100.00
21100;BME280;10708;50.824;4.408;2023-06-04T21:30:32;101104.47;;;18.15;100.00
21100;BME280;10708;50.824;4.408;2023-06-04T21:35:35;101099.84;;;18.02;100.00
21100;BME280;10708;50.824;4.408;2023-06-04T21:40:37;101111.22;;;17.90;100.00
21100;BME280;10708;50.824;4.408;2023-06-04T21:45:40;101113.72;;;17.78;100.00
21100;BME280;10708;50.824;4.408;2023-06-04T21:50:43;101119.75;;;17.65;100.00
21100;BME280;10708;50.824;4.408;2023-06-04T21:55:45;101118.69;;;17.52;100.00
21100;BME280;10708;50.824;4.408;2023-06-04T22:00:47;101119.19;;;17.43;100.00
21100;BME280;10708;50.824;4.408;2023-06-04T22:05:51;101118.91;;;17.32;100.00
21100;BME280;10708;50.824;4.408;2023-06-04T22:10:53;101120.38;;;17.22;100.00
21100;BME280;10708;50.824;4.408;2023-06-04T22:15:55;101120.16;;;17.09;100.00
21100;BME280;10708;50.824;4.408;2023-06-04T22:20:58;101123.31;;;17.00;100.00
21100;BME280;10708;50.824;4.408;2023-06-04T22:26:00;101129.22;;;16.89;100.00
21100;BME280;10708;50.824;4.408;2023-06-04T22:31:02;101134.09;;;16.81;100.00
21100;BME280;10708;50.824;4.408;2023-06-04T22:36:06;101125.00;;;16.68;100.00
21100;BME280;10708;50.824;4.408;2023-06-04T22:41:08;101137.91;;;16.58;100.00
21100;BME280;10708;50.824;4.408;2023-06-04T22:46:10;101132.38;;;16.46;100.00
21100;BME280;10708;50.824;4.408;2023-06-04T22:51:14;101140.63;;;16.40;100.00
21100;BME280;10708;50.824;4.408;2023-06-04T22:56:18;101131.41;;;16.30;100.00
21100;BME280;10708;50.824;4.408;2023-06-04T23:01:20;101130.16;;;16.19;100.00
21100;BME280;10708;50.824;4.408;2023-06-04T23:06:24;101135.06;;;16.10;100.00
21100;BME280;10708;50.824;4.408;2023-06-04T23:11:28;101140.75;;;16.02;100.00
21100;BME280;10708;50.824;4.408;2023-06-04T23:16:30;101141.28;;;15.92;100.00
21100;BME280;10708;50.824;4.408;2023-06-04T23:21:34;101139.88;;;15.84;100.00
21100;BME280;10708;50.824;4.408;2023-06-04T23:26:37;101144.75;;;15.75;100.00
21100;BME280;10708;50.824;4.408;2023-06-04T23:31:39;101149.50;;;15.68;100.00
21100;BME280;10708;50.824;4.408;2023-06-04T23:36:42;101141.03;;;15.60;100.00
21100;BME280;10708;50.824;4.408;2023-06-04T23:41:44;101146.75;;;15.51;100.00
21100;BME280;10708;50.824;4.408;2023-06-04T23:46:46;101139.16;;;15.43;100.00
21100;BME280;10708;50.824;4.408;2023-06-04T23:51:50;101143.88;;;15.37;100.00
21100;BME280;10708;50.824;4.408;2023-06-04T23:56:52;101144.16;;;15.31;100.00
